createdAt,value
2018-07-03T00:00:25.401Z,2.57
2018-07-03T00:02:57.019Z,2.60
2018-07-03T00:05:27.397Z,2.90
2018-07-03T00:07:58.897Z,3.27
2018-07-03T00:10:29.634Z,3.00
2018-07-03T00:12:59.996Z,3.10
2018-07-03T00:15:31.195Z,2.87
2018-07-03T00:18:01.582Z,3.20
2018-07-03T00:20:32.438Z,3.40
2018-07-03T00:23:02.816Z,2.70
2018-07-03T00:25:34.849Z,3.33
2018-07-03T00:28:11.651Z,3.43
2018-07-03T00:30:43.026Z,3.27
2018-07-03T00:33:14.161Z,3.17
2018-07-03T00:35:44.571Z,3.27
2018-07-03T00:38:16.823Z,3.40
2018-07-03T00:40:48.708Z,3.43
2018-07-03T00:43:19.108Z,3.30
2018-07-03T00:45:49.504Z,3.30
2018-07-03T00:48:19.885Z,3.20
2018-07-03T00:50:50.225Z,3.33
2018-07-03T00:53:20.615Z,2.97
2018-07-03T00:55:53.044Z,3.07
2018-07-03T00:58:24.246Z,2.83
2018-07-03T01:00:58.702Z,3.47
2018-07-03T01:03:29.091Z,3.30
2018-07-03T01:05:59.434Z,3.73
2018-07-03T01:08:29.820Z,2.73
2018-07-03T01:11:00.186Z,3.37
2018-07-03T01:13:30.684Z,3.50
2018-07-03T01:16:01.388Z,3.20
2018-07-03T01:18:31.678Z,3.40
2018-07-03T01:21:21.172Z,3.30
2018-07-03T01:23:51.542Z,3.50
2018-07-03T01:26:21.914Z,3.30
2018-07-03T01:28:52.319Z,3.07
2018-07-03T01:31:22.689Z,3.10
2018-07-03T01:33:53.052Z,3.20
2018-07-03T01:36:24.223Z,3.43
2018-07-03T01:38:54.605Z,3.13
2018-07-03T01:41:24.970Z,3.37
2018-07-03T01:43:56.207Z,3.10
2018-07-03T01:46:28.043Z,3.30
2018-07-03T01:48:58.416Z,3.57
2018-07-03T01:51:28.805Z,3.53
2018-07-03T01:53:59.184Z,2.90
2018-07-03T01:56:31.048Z,2.80
2018-07-03T01:59:01.450Z,2.90
2018-07-03T02:01:32.589Z,3.20
2018-07-03T02:04:03.724Z,3.10
2018-07-03T02:06:34.120Z,3.07
2018-07-03T02:09:05.193Z,3.33
2018-07-03T02:11:35.883Z,3.57
2018-07-03T02:14:06.281Z,3.70
2018-07-03T02:16:37.352Z,3.30
2018-07-03T02:19:08.757Z,3.47
2018-07-03T02:21:39.155Z,3.67
2018-07-03T02:24:11.563Z,3.23
2018-07-03T02:26:41.944Z,2.90
2018-07-03T02:29:15.766Z,3.37
2018-07-03T02:31:49.221Z,3.57
2018-07-03T02:34:20.386Z,3.30
2018-07-03T02:36:50.777Z,3.27
2018-07-03T02:39:21.149Z,3.20
2018-07-03T02:41:51.857Z,3.37
2018-07-03T02:44:22.976Z,3.37
2018-07-03T02:46:53.360Z,3.10
2018-07-03T02:49:23.765Z,3.20
2018-07-03T02:51:56.643Z,3.10
2018-07-03T02:54:27.774Z,3.30
2018-07-03T02:56:58.436Z,3.40
2018-07-03T02:59:29.570Z,3.30
2018-07-03T03:02:00.711Z,3.10
2018-07-03T03:04:31.106Z,3.53
2018-07-03T03:07:22.067Z,2.97
2018-07-03T03:09:53.099Z,3.80
2018-07-03T03:12:24.169Z,3.57
2018-07-03T03:14:54.536Z,3.13
2018-07-03T03:17:24.944Z,3.40
2018-07-03T03:19:56.330Z,3.63
2018-07-03T03:22:26.719Z,3.50
2018-07-03T03:27:46.552Z,3.27
2018-07-03T03:30:22.099Z,3.40
2018-07-03T03:32:54.518Z,3.20
2018-07-03T03:35:25.936Z,3.83
2018-07-03T03:37:56.339Z,3.90
2018-07-03T03:40:27.510Z,3.67
2018-07-03T03:42:57.903Z,3.43
2018-07-03T03:45:28.292Z,3.63
2018-07-03T03:47:58.662Z,3.60
2018-07-03T03:50:29.309Z,3.37
2018-07-03T03:52:59.698Z,3.57
2018-07-03T03:55:31.140Z,3.63
2018-07-03T03:58:01.516Z,3.83
2018-07-03T04:00:32.132Z,3.90
2018-07-03T04:03:04.612Z,3.60
2018-07-03T04:05:35.755Z,3.80
2018-07-03T04:08:06.144Z,3.90
2018-07-03T04:10:37.010Z,3.70
2018-07-03T04:13:08.150Z,3.83
2018-07-03T04:15:38.549Z,3.60
2018-07-03T04:18:08.926Z,3.50
2018-07-03T04:20:40.061Z,4.27
2018-07-03T04:23:12.009Z,4.10
2018-07-03T04:25:43.532Z,4.13
2018-07-03T04:28:15.943Z,3.73
2018-07-03T04:30:46.335Z,3.87
2018-07-03T04:33:16.704Z,4.00
2018-07-03T04:35:47.534Z,3.90
2018-07-03T04:38:19.603Z,4.40
2018-07-03T04:40:50.722Z,4.13
2018-07-03T04:43:41.977Z,4.20
2018-07-03T04:46:12.931Z,4.30
2018-07-03T04:48:44.060Z,4.07
2018-07-03T04:51:14.432Z,4.10
2018-07-03T04:53:44.857Z,4.10
2018-07-03T04:56:15.249Z,3.83
2018-07-03T04:58:45.629Z,4.10
2018-07-03T05:01:16.005Z,4.10
2018-07-03T05:03:46.710Z,4.10
2018-07-03T05:06:17.061Z,4.23
2018-07-03T05:08:49.349Z,4.27
2018-07-03T05:11:19.727Z,3.90
2018-07-03T05:13:56.254Z,4.13
2018-07-03T05:16:27.393Z,4.30
2018-07-03T05:18:58.540Z,4.13
2018-07-03T05:21:28.880Z,4.07
2018-07-03T05:24:00.010Z,4.20
2018-07-03T05:26:30.660Z,4.40
2018-07-03T05:29:01.057Z,4.53
2018-07-03T05:31:31.474Z,4.17
2018-07-03T05:34:01.743Z,4.50
2018-07-03T05:36:42.937Z,4.37
2018-07-03T05:39:20.803Z,4.37
2018-07-03T05:41:51.197Z,3.97
2018-07-03T05:44:27.698Z,4.20
2018-07-03T05:46:58.105Z,3.97
2018-07-03T05:49:28.485Z,4.30
2018-07-03T05:51:58.857Z,4.53
2018-07-03T05:54:29.251Z,4.00
2018-07-03T05:56:59.824Z,3.73
2018-07-03T05:59:30.411Z,4.00
2018-07-03T06:02:00.808Z,4.40
2018-07-03T06:04:31.180Z,3.83
2018-07-03T06:07:01.549Z,3.83
2018-07-03T06:09:31.987Z,3.67
2018-07-03T06:12:22.703Z,3.90
2018-07-03T06:14:54.819Z,3.80
2018-07-03T06:17:26.003Z,4.10
2018-07-03T06:19:56.311Z,3.83
2018-07-03T06:22:26.699Z,3.90
2018-07-03T06:24:59.047Z,3.73
2018-07-03T06:27:30.120Z,4.00
2018-07-03T06:30:00.535Z,3.83
2018-07-03T06:32:33.548Z,3.40
2018-07-03T06:35:03.923Z,3.90
2018-07-03T06:37:35.077Z,4.00
2018-07-03T06:40:07.818Z,3.87
2018-07-03T06:42:45.380Z,3.70
2018-07-03T06:45:15.739Z,3.70
2018-07-03T06:47:46.104Z,3.93
2018-07-03T06:50:16.604Z,3.47
2018-07-03T06:53:05.321Z,3.93
2018-07-03T06:55:35.720Z,3.77
2018-07-03T06:58:06.092Z,3.83
2018-07-03T07:00:36.462Z,3.50
2018-07-03T07:03:06.868Z,3.83
2018-07-03T07:05:37.231Z,4.13
2018-07-03T07:08:07.611Z,4.60
2018-07-03T07:10:37.958Z,4.10
2018-07-03T07:13:18.112Z,3.83
2018-07-03T07:15:48.850Z,4.07
2018-07-03T07:18:19.216Z,3.97
2018-07-03T07:20:49.593Z,4.00
2018-07-03T07:23:20.036Z,3.73
2018-07-03T07:25:50.365Z,3.63
2018-07-03T07:28:26.567Z,3.50
2018-07-03T07:30:56.950Z,3.57
2018-07-03T07:33:28.349Z,3.27
2018-07-03T07:35:58.775Z,3.50
2018-07-03T07:38:29.069Z,3.20
2018-07-03T07:41:00.464Z,3.50
2018-07-03T07:43:30.775Z,3.27
2018-07-03T07:49:04.719Z,3.27
2018-07-03T07:51:35.106Z,3.47
2018-07-03T07:54:05.448Z,3.47
2018-07-03T07:56:35.824Z,3.33
2018-07-03T07:59:06.986Z,3.53
2018-07-03T08:01:38.121Z,3.57
2018-07-03T08:04:09.480Z,3.83
2018-07-03T08:06:40.644Z,3.10
2018-07-03T08:09:11.765Z,3.40
2018-07-03T08:11:43.090Z,3.80
2018-07-03T08:14:13.485Z,3.60
2018-07-03T08:16:43.867Z,3.50
2018-07-03T08:19:14.294Z,3.97
2018-07-03T08:21:44.626Z,3.57
2018-07-03T08:24:15.759Z,3.23
2018-07-03T08:26:46.120Z,3.90
2018-07-03T08:29:17.275Z,3.40
2018-07-03T08:31:47.646Z,3.63
2018-07-03T08:34:39.456Z,3.27
2018-07-03T08:37:09.835Z,3.50
2018-07-03T08:39:40.212Z,3.50
2018-07-03T08:42:11.315Z,3.63
2018-07-03T08:44:43.725Z,3.70
2018-07-03T08:47:14.088Z,3.70
2018-07-03T08:49:46.203Z,3.53
2018-07-03T08:52:17.331Z,3.53
2018-07-03T08:54:47.701Z,3.70
2018-07-03T08:57:18.172Z,3.40
2018-07-03T08:59:48.533Z,3.60
2018-07-03T09:02:22.960Z,3.73
2018-07-03T09:04:55.269Z,3.67
2018-07-03T09:07:25.631Z,3.57
2018-07-03T09:09:56.000Z,3.90
2018-07-03T09:12:27.164Z,4.17
2018-07-03T09:14:57.541Z,3.90
2018-07-03T09:17:27.919Z,4.03
2018-07-03T09:19:58.256Z,4.00
2018-07-03T09:22:28.631Z,4.13
2018-07-03T09:24:59.002Z,3.90
2018-07-03T09:27:30.938Z,4.13
2018-07-03T09:30:01.309Z,4.20
2018-07-03T09:32:31.686Z,4.20
2018-07-03T09:35:06.422Z,4.27
2018-07-03T09:37:38.839Z,4.23
2018-07-03T09:40:09.597Z,4.47
2018-07-03T09:42:40.895Z,4.20
2018-07-03T09:45:11.205Z,4.10
2018-07-03T09:47:41.763Z,4.20
2018-07-03T09:50:12.168Z,4.40
2018-07-03T09:52:43.635Z,4.17
2018-07-03T09:55:13.950Z,4.30
2018-07-03T09:57:44.367Z,4.17
2018-07-03T10:00:14.716Z,4.10
2018-07-03T10:02:45.082Z,4.27
2018-07-03T10:05:16.993Z,4.33
2018-07-03T10:07:47.808Z,4.23
2018-07-03T10:10:23.787Z,4.67
2018-07-03T10:12:54.499Z,4.03
2018-07-03T10:15:24.813Z,4.70
2018-07-03T10:17:55.225Z,4.20
2018-07-03T10:20:25.615Z,4.57
2018-07-03T10:22:56.275Z,4.03
2018-07-03T10:25:27.459Z,4.90
2018-07-03T10:27:58.843Z,4.37
2018-07-03T10:30:29.224Z,4.67
2018-07-03T10:32:59.602Z,4.20
2018-07-03T10:35:30.381Z,4.63
2018-07-03T10:38:01.910Z,4.73
2018-07-03T10:40:33.265Z,4.33
2018-07-03T10:43:04.404Z,4.40
2018-07-03T10:45:35.536Z,4.70
2018-07-03T10:48:05.939Z,4.70
2018-07-03T10:50:36.250Z,4.27
2018-07-03T10:53:24.984Z,4.50
2018-07-03T10:55:55.361Z,5.10
2018-07-03T10:58:25.735Z,4.53
2018-07-03T11:00:58.097Z,4.43
2018-07-03T11:03:29.583Z,4.27
2018-07-03T11:06:01.937Z,4.70
2018-07-03T11:08:32.323Z,4.53
2018-07-03T11:11:02.640Z,5.07
2018-07-03T11:13:33.018Z,5.07
2018-07-03T11:16:03.412Z,5.27
2018-07-03T11:18:33.791Z,4.90
2018-07-03T11:21:04.159Z,4.87
2018-07-03T11:23:34.549Z,4.67
2018-07-03T11:26:04.925Z,5.10
2018-07-03T11:28:36.072Z,4.57
2018-07-03T11:31:06.589Z,4.70
2018-07-03T11:33:36.976Z,4.90
2018-07-03T11:36:08.576Z,4.40
2018-07-03T11:38:38.921Z,4.43
2018-07-03T11:41:09.296Z,4.73
2018-07-03T11:43:39.664Z,4.50
2018-07-03T11:46:10.076Z,4.80
2018-07-03T11:48:40.526Z,4.87
2018-07-03T11:51:10.905Z,4.53
2018-07-03T11:53:41.370Z,4.97
2018-07-03T11:56:12.398Z,4.03
2018-07-03T11:59:02.109Z,4.50
2018-07-03T12:04:17.289Z,4.33
2018-07-03T12:06:47.664Z,5.07
2018-07-03T12:09:18.819Z,5.00
2018-07-03T12:11:49.211Z,5.10
2018-07-03T12:14:19.586Z,4.80
2018-07-03T12:16:49.944Z,4.50
2018-07-03T12:19:43.614Z,4.60
2018-07-03T12:22:13.858Z,5.13
2018-07-03T12:24:44.227Z,5.27
2018-07-03T12:27:14.635Z,4.90
2018-07-03T12:29:45.022Z,4.53
2018-07-03T12:32:23.130Z,4.87
2018-07-03T12:34:59.674Z,4.53
2018-07-03T12:37:30.472Z,4.70
2018-07-03T12:40:01.580Z,4.57
2018-07-03T12:42:31.959Z,4.43
2018-07-03T12:45:02.349Z,5.10
2018-07-03T12:47:52.087Z,4.73
2018-07-03T12:50:23.250Z,4.50
2018-07-03T12:52:53.617Z,4.67
2018-07-03T12:55:24.783Z,4.23
2018-07-03T12:57:55.129Z,4.47
2018-07-03T13:00:26.728Z,4.70
2018-07-03T13:02:59.384Z,4.87
2018-07-03T13:05:30.559Z,4.93
2018-07-03T13:08:01.745Z,4.97
2018-07-03T13:10:51.498Z,4.57
2018-07-03T13:13:21.844Z,4.60
2018-07-03T13:15:52.242Z,5.07
2018-07-03T13:18:22.957Z,4.40
2018-07-03T13:20:55.401Z,4.47
2018-07-03T13:23:25.748Z,4.90
2018-07-03T13:25:56.922Z,4.50
2018-07-03T13:28:29.968Z,4.23
2018-07-03T13:31:00.325Z,4.57
2018-07-03T13:33:31.485Z,4.80
2018-07-03T13:36:03.190Z,4.50
2018-07-03T13:38:33.744Z,4.70
2018-07-03T13:41:04.477Z,4.90
2018-07-03T13:43:34.855Z,4.50
2018-07-03T13:46:05.243Z,4.60
2018-07-03T13:48:35.885Z,4.13
2018-07-03T13:51:07.009Z,4.53
2018-07-03T13:53:37.379Z,4.63
2018-07-03T13:56:07.769Z,4.67
2018-07-03T13:58:38.136Z,4.70
2018-07-03T14:01:09.028Z,4.60
2018-07-03T14:03:41.078Z,4.90
2018-07-03T14:06:33.632Z,4.67
2018-07-03T14:09:23.435Z,4.63
2018-07-03T14:11:54.135Z,4.30
2018-07-03T14:14:25.556Z,4.60
2018-07-03T14:16:55.919Z,5.03
2018-07-03T14:19:29.412Z,4.90
2018-07-03T14:22:02.312Z,4.73
2018-07-03T14:24:32.622Z,4.43
2018-07-03T14:27:02.993Z,4.63
2018-07-03T14:29:33.954Z,5.13
2018-07-03T14:32:04.333Z,4.83
2018-07-03T14:34:37.261Z,4.73
2018-07-03T14:37:07.795Z,4.60
2018-07-03T14:39:38.180Z,4.43
2018-07-03T14:42:08.912Z,4.80
2018-07-03T14:44:39.258Z,4.20
2018-07-03T14:47:11.672Z,4.80
2018-07-03T14:49:42.039Z,4.53
2018-07-03T14:52:12.438Z,4.77
2018-07-03T14:54:42.802Z,4.60
2018-07-03T14:57:13.581Z,4.50
2018-07-03T14:59:48.079Z,4.60
2018-07-03T15:02:22.553Z,4.50
2018-07-03T15:04:53.597Z,3.87
2018-07-03T15:07:26.556Z,3.90
2018-07-03T15:10:18.340Z,4.47
2018-07-03T15:12:51.721Z,3.80
2018-07-03T15:18:11.437Z,3.63
2018-07-03T15:20:43.640Z,4.27
2018-07-03T15:23:14.775Z,4.20
2018-07-03T15:25:45.979Z,4.40
2018-07-03T15:28:16.309Z,4.17
2018-07-03T15:30:49.908Z,4.33
2018-07-03T15:33:21.771Z,4.33
2018-07-03T15:35:56.371Z,3.83
2018-07-03T15:38:26.785Z,4.03
2018-07-03T15:40:57.869Z,4.20
2018-07-03T15:43:28.241Z,4.37
2018-07-03T15:45:58.628Z,3.90
2018-07-03T15:48:29.015Z,3.70
2018-07-03T15:51:07.866Z,3.80
2018-07-03T15:53:38.237Z,3.73
2018-07-03T15:56:10.213Z,3.77
2018-07-03T15:58:40.761Z,3.77
2018-07-03T16:01:12.012Z,4.20
2018-07-03T16:03:49.437Z,3.90
2018-07-03T16:06:30.092Z,4.27
2018-07-03T16:09:02.986Z,10.77
2018-07-03T16:11:33.358Z,4.10
2018-07-03T16:14:03.980Z,4.40
2018-07-03T16:16:35.292Z,7.50
2018-07-03T16:19:05.674Z,10.80
2018-07-03T16:21:36.053Z,5.10
2018-07-03T16:24:07.588Z,5.13
2018-07-03T16:26:39.659Z,21.83
2018-07-03T16:29:10.043Z,15.13
2018-07-03T16:31:44.500Z,5.70
2018-07-03T16:34:14.880Z,4.60
2018-07-03T16:36:48.694Z,4.80
2018-07-03T16:39:19.258Z,6.53
2018-07-03T16:41:51.365Z,7.60
2018-07-03T16:44:23.434Z,13.50
2018-07-03T16:46:54.394Z,17.13
2018-07-03T16:49:24.774Z,12.20
2018-07-03T16:51:55.177Z,11.70
2018-07-03T16:54:44.320Z,6.67
2018-07-03T16:57:14.857Z,13.60
2018-07-03T16:59:45.237Z,12.20
2018-07-03T17:02:18.798Z,14.73
2018-07-03T17:04:49.194Z,9.47
2018-07-03T17:07:19.569Z,20.27
2018-07-03T17:09:49.952Z,6.20
2018-07-03T17:12:22.078Z,6.53
2018-07-03T17:14:52.639Z,4.93
2018-07-03T17:17:23.400Z,4.93
2018-07-03T17:19:53.791Z,4.80
2018-07-03T17:22:24.174Z,4.40
2018-07-03T17:25:00.914Z,4.13
2018-07-03T17:27:31.278Z,4.30
2018-07-03T17:30:01.598Z,4.50
2018-07-03T17:32:51.315Z,4.33
2018-07-03T17:35:23.103Z,4.20
2018-07-03T17:37:56.474Z,4.33
2018-07-03T17:44:00.566Z,4.43
2018-07-03T17:46:36.070Z,4.50
2018-07-03T17:49:06.447Z,4.60
2018-07-03T17:51:39.043Z,4.50
2018-07-03T17:54:09.441Z,4.33
2018-07-03T17:56:39.814Z,4.47
2018-07-03T17:59:10.185Z,4.40
2018-07-03T18:01:40.802Z,4.20
2018-07-03T18:04:11.198Z,4.13
2018-07-03T18:06:44.081Z,4.40
2018-07-03T18:09:17.449Z,4.70
2018-07-03T18:12:09.513Z,4.17
2018-07-03T18:14:40.225Z,4.03
2018-07-03T18:17:13.369Z,3.87
2018-07-03T18:19:43.742Z,4.40
2018-07-03T18:22:14.145Z,4.23
2018-07-03T18:24:44.462Z,3.73
2018-07-03T18:27:14.862Z,4.13
2018-07-03T18:29:48.380Z,3.80
2018-07-03T18:32:24.101Z,4.13
2018-07-03T18:34:54.494Z,4.30
2018-07-03T18:37:29.975Z,4.40
2018-07-03T18:40:01.777Z,4.73
2018-07-03T18:42:35.299Z,3.80
2018-07-03T18:45:08.707Z,4.10
2018-07-03T18:47:39.022Z,4.40
2018-07-03T18:50:31.524Z,4.13
2018-07-03T18:53:02.911Z,4.10
2018-07-03T18:55:36.918Z,3.90
2018-07-03T18:58:30.248Z,4.53
2018-07-03T19:01:01.848Z,5.20
2018-07-03T19:03:52.859Z,4.30
2018-07-03T19:06:25.882Z,3.83
2018-07-03T19:08:57.032Z,4.10
2018-07-03T19:11:28.173Z,4.10
2018-07-03T19:14:02.274Z,3.73
2018-07-03T19:16:32.666Z,4.33
2018-07-03T19:19:03.261Z,4.23
2018-07-03T19:21:34.429Z,4.23
2018-07-03T19:24:04.811Z,4.17
2018-07-03T19:26:35.973Z,4.20
2018-07-03T19:29:06.350Z,4.13
2018-07-03T19:31:56.246Z,4.33
2018-07-03T19:34:26.724Z,4.27
2018-07-03T19:36:57.359Z,3.90
2018-07-03T19:39:27.725Z,4.40
2018-07-03T19:41:58.124Z,3.83
2018-07-03T19:44:30.169Z,4.30
2018-07-03T19:47:01.321Z,4.10
2018-07-03T19:49:34.328Z,3.80
2018-07-03T19:52:04.705Z,4.07
2018-07-03T19:54:35.477Z,3.57
2018-07-03T19:57:06.293Z,4.30
2018-07-03T19:59:37.488Z,4.10
2018-07-03T20:02:07.832Z,4.37
2018-07-03T20:04:42.199Z,4.00
2018-07-03T20:07:12.585Z,3.97
2018-07-03T20:09:47.421Z,4.03
2018-07-03T20:12:17.803Z,4.20
2018-07-03T20:14:48.561Z,3.77
2018-07-03T20:17:24.608Z,4.20
2018-07-03T20:20:00.111Z,4.53
2018-07-03T20:22:32.407Z,4.27
2018-07-03T20:25:02.906Z,4.30
2018-07-03T20:27:36.647Z,4.30
2018-07-03T20:30:06.956Z,4.10
2018-07-03T20:32:37.712Z,4.43
2018-07-03T20:35:08.867Z,4.73
2018-07-03T20:37:45.194Z,4.13
2018-07-03T20:40:17.313Z,4.33
2018-07-03T20:42:52.296Z,4.23
2018-07-03T20:45:24.367Z,3.83
2018-07-03T20:47:55.138Z,4.47
2018-07-03T20:50:26.889Z,4.30
2018-07-03T20:53:02.777Z,4.33
2018-07-03T20:55:33.137Z,4.50
2018-07-03T20:58:04.217Z,4.20
2018-07-03T21:00:34.554Z,4.77
2018-07-03T21:06:19.816Z,4.70
2018-07-03T21:08:50.046Z,4.40
2018-07-03T21:11:20.399Z,4.40
2018-07-03T21:13:51.808Z,4.50
2018-07-03T21:16:22.948Z,4.30
2018-07-03T21:18:54.086Z,4.10
2018-07-03T21:21:25.180Z,4.53
2018-07-03T21:23:55.626Z,4.00
2018-07-03T21:26:26.471Z,4.20
2018-07-03T21:28:59.576Z,4.10
2018-07-03T21:31:30.713Z,4.20
2018-07-03T21:34:01.021Z,4.23
2018-07-03T21:36:31.414Z,4.57
2018-07-03T21:39:01.832Z,3.97
2018-07-03T21:41:32.092Z,4.77
2018-07-03T21:44:02.484Z,4.20
2018-07-03T21:46:33.100Z,4.40
2018-07-03T21:49:04.246Z,4.30
2018-07-03T21:51:34.639Z,4.63
2018-07-03T21:54:05.007Z,4.20
2018-07-03T21:56:36.689Z,4.40
2018-07-03T21:59:10.101Z,4.10
2018-07-03T22:01:40.462Z,4.70
2018-07-03T22:04:13.074Z,4.40
2018-07-03T22:06:43.501Z,4.50
2018-07-03T22:09:13.880Z,4.80
2018-07-03T22:11:45.097Z,4.37
2018-07-03T22:14:16.296Z,4.17
2018-07-03T22:16:47.699Z,4.53
2018-07-03T22:19:19.208Z,4.60
2018-07-03T22:21:50.443Z,4.17
2018-07-03T22:24:21.475Z,4.17
2018-07-03T22:26:51.922Z,4.43
2018-07-03T22:29:22.338Z,4.70
2018-07-03T22:31:54.878Z,4.43
2018-07-03T22:34:32.974Z,4.73
2018-07-03T22:37:05.087Z,4.40
2018-07-03T22:39:35.408Z,4.53
2018-07-03T22:42:05.802Z,4.53
2018-07-03T22:44:36.166Z,4.20
2018-07-03T22:47:06.543Z,4.20
2018-07-03T22:49:36.931Z,4.80
2018-07-03T22:52:08.076Z,4.30
2018-07-03T22:54:39.221Z,4.50
2018-07-03T22:57:10.029Z,4.80
2018-07-03T22:59:43.199Z,4.57
2018-07-03T23:02:18.099Z,4.90
2018-07-03T23:04:49.176Z,4.70
2018-07-03T23:07:21.602Z,4.60
2018-07-03T23:09:54.316Z,5.07
2018-07-03T23:12:25.020Z,4.87
2018-07-03T23:14:55.391Z,4.43
2018-07-03T23:17:25.793Z,4.63
2018-07-03T23:19:56.102Z,4.73
2018-07-03T23:22:27.425Z,4.30
2018-07-03T23:24:57.754Z,4.80
2018-07-03T23:27:28.128Z,4.90
2018-07-03T23:29:58.507Z,4.90
2018-07-03T23:32:28.905Z,4.80
2018-07-03T23:34:59.280Z,4.87
2018-07-03T23:37:29.656Z,5.40
2018-07-03T23:40:04.144Z,4.77
2018-07-03T23:42:35.280Z,5.37
2018-07-03T23:45:06.729Z,5.40
2018-07-03T23:48:32.135Z,4.87
2018-07-03T23:51:58.431Z,4.87
2018-07-03T23:55:23.789Z,5.17
2018-07-03T23:58:49.006Z,5.23
